sensor_id;sensor_type;location;lat;lon;timestamp;P1;durP1;ratioP1;P2;durP2;ratioP2
64885;SDS011;51514;52.206;5.114;2022-09-29T00:01:28;6.88;;;4.43;;
64885;SDS011;51514;52.206;5.114;2022-09-29T00:03:54;5.78;;;5.03;;
64885;SDS011;51514;52.206;5.114;2022-09-29T00:06:19;6.13;;;4.35;;
64885;SDS011;51514;52.206;5.114;2022-09-29T00:08:45;7.60;;;3.78;;
64885;SDS011;51514;52.206;5.114;2022-09-29T00:11:12;5.53;;;3.83;;
64885;SDS011;51514;52.206;5.114;2022-09-29T00:13:39;4.60;;;3.37;;
64885;SDS011;51514;52.206;5.114;2022-09-29T00:16:05;6.95;;;3.53;;
64885;SDS011;51514;52.206;5.114;2022-09-29T00:18:31;6.07;;;4.03;;
64885;SDS011;51514;52.206;5.114;2022-09-29T00:23:24;8.05;;;3.80;;
64885;SDS011;51514;52.206;5.114;2022-09-29T00:26:10;6.35;;;3.65;;
64885;SDS011;51514;52.206;5.114;2022-09-29T00:28:39;6.97;;;3.92;;
64885;SDS011;51514;52.206;5.114;2022-09-29T00:31:06;5.68;;;4.28;;
64885;SDS011;51514;52.206;5.114;2022-09-29T00:33:35;7.95;;;4.63;;
64885;SDS011;51514;52.206;5.114;2022-09-29T00:36:02;6.80;;;4.75;;
64885;SDS011;51514;52.206;5.114;2022-09-29T00:38:33;6.53;;;4.93;;
64885;SDS011;51514;52.206;5.114;2022-09-29T00:41:03;6.60;;;5.05;;
64885;SDS011;51514;52.206;5.114;2022-09-29T00:46:13;7.35;;;5.65;;
64885;SDS011;51514;52.206;5.114;2022-09-29T00:48:41;8.75;;;5.57;;
64885;SDS011;51514;52.206;5.114;2022-09-29T00:51:07;7.88;;;5.35;;
64885;SDS011;51514;52.206;5.114;2022-09-29T00:53:33;10.50;;;5.20;;
64885;SDS011;51514;52.206;5.114;2022-09-29T00:56:00;7.05;;;5.75;;
64885;SDS011;51514;52.206;5.114;2022-09-29T00:58:36;7.55;;;5.45;;
64885;SDS011;51514;52.206;5.114;2022-09-29T01:01:18;7.70;;;5.55;;
64885;SDS011;51514;52.206;5.114;2022-09-29T01:03:44;6.80;;;5.30;;
64885;SDS011;51514;52.206;5.114;2022-09-29T01:06:19;7.65;;;5.25;;
64885;SDS011;51514;52.206;5.114;2022-09-29T01:09:04;7.78;;;5.30;;
64885;SDS011;51514;52.206;5.114;2022-09-29T01:11:33;9.27;;;6.00;;
64885;SDS011;51514;52.206;5.114;2022-09-29T01:13:59;9.05;;;6.18;;
64885;SDS011;51514;52.206;5.114;2022-09-29T01:16:30;10.48;;;5.63;;
64885;SDS011;51514;52.206;5.114;2022-09-29T01:18:57;11.02;;;4.95;;
64885;SDS011;51514;52.206;5.114;2022-09-29T01:27:21;7.15;;;5.47;;
64885;SDS011;51514;52.206;5.114;2022-09-29T01:38:01;8.77;;;5.63;;
64885;SDS011;51514;52.206;5.114;2022-09-29T01:43:38;8.60;;;4.95;;
64885;SDS011;51514;52.206;5.114;2022-09-29T01:49:08;7.03;;;5.22;;
64885;SDS011;51514;52.206;5.114;2022-09-29T01:51:39;6.88;;;4.68;;
64885;SDS011;51514;52.206;5.114;2022-09-29T01:54:14;8.55;;;5.15;;
64885;SDS011;51514;52.206;5.114;2022-09-29T01:56:45;6.35;;;5.28;;
64885;SDS011;51514;52.206;5.114;2022-09-29T01:59:18;8.38;;;4.78;;
64885;SDS011;51514;52.206;5.114;2022-09-29T02:01:57;9.48;;;4.10;;
64885;SDS011;51514;52.206;5.114;2022-09-29T02:05:10;5.50;;;4.47;;
64885;SDS011;51514;52.206;5.114;2022-09-29T02:07:22;13.60;;;5.18;;
64885;SDS011;51514;52.206;5.114;2022-09-29T02:10:01;9.48;;;5.43;;
64885;SDS011;51514;52.206;5.114;2022-09-29T02:12:33;7.65;;;5.55;;
64885;SDS011;51514;52.206;5.114;2022-09-29T02:15:02;10.80;;;5.85;;
64885;SDS011;51514;52.206;5.114;2022-09-29T02:17:35;8.57;;;6.38;;
64885;SDS011;51514;52.206;5.114;2022-09-29T02:20:02;7.78;;;6.35;;
64885;SDS011;51514;52.206;5.114;2022-09-29T02:22:29;8.25;;;5.85;;
64885;SDS011;51514;52.206;5.114;2022-09-29T02:24:54;9.32;;;6.18;;
64885;SDS011;51514;52.206;5.114;2022-09-29T02:27:26;10.07;;;6.78;;
64885;SDS011;51514;52.206;5.114;2022-09-29T02:29:57;9.48;;;6.25;;
64885;SDS011;51514;52.206;5.114;2022-09-29T02:32:23;9.38;;;6.60;;
64885;SDS011;51514;52.206;5.114;2022-09-29T02:34:49;10.80;;;7.35;;
64885;SDS011;51514;52.206;5.114;2022-09-29T02:37:28;8.80;;;7.30;;
64885;SDS011;51514;52.206;5.114;2022-09-29T02:46:30;7.13;;;5.20;;
64885;SDS011;51514;52.206;5.114;2022-09-29T02:51:58;10.50;;;6.50;;
64885;SDS011;51514;52.206;5.114;2022-09-29T02:57:23;9.90;;;6.68;;
64885;SDS011;51514;52.206;5.114;2022-09-29T03:00:04;8.88;;;6.93;;
64885;SDS011;51514;52.206;5.114;2022-09-29T03:02:38;9.70;;;7.25;;
64885;SDS011;51514;52.206;5.114;2022-09-29T03:05:06;9.68;;;6.78;;
64885;SDS011;51514;52.206;5.114;2022-09-29T03:07:39;8.05;;;6.80;;
64885;SDS011;51514;52.206;5.114;2022-09-29T03:10:06;9.50;;;7.78;;
64885;SDS011;51514;52.206;5.114;2022-09-29T03:12:32;9.00;;;6.50;;
64885;SDS011;51514;52.206;5.114;2022-09-29T03:14:58;19.55;;;6.43;;
64885;SDS011;51514;52.206;5.114;2022-09-29T03:17:23;7.25;;;6.13;;
64885;SDS011;51514;52.206;5.114;2022-09-29T03:19:49;9.27;;;7.10;;
64885;SDS011;51514;52.206;5.114;2022-09-29T03:22:14;9.65;;;6.95;;
64885;SDS011;51514;52.206;5.114;2022-09-29T03:24:40;10.35;;;7.40;;
64885;SDS011;51514;52.206;5.114;2022-09-29T03:27:06;10.55;;;7.20;;
64885;SDS011;51514;52.206;5.114;2022-09-29T03:29:33;15.05;;;7.68;;
64885;SDS011;51514;52.206;5.114;2022-09-29T03:32:02;8.30;;;7.10;;
64885;SDS011;51514;52.206;5.114;2022-09-29T03:34:28;9.55;;;7.30;;
64885;SDS011;51514;52.206;5.114;2022-09-29T03:36:54;8.63;;;6.97;;
64885;SDS011;51514;52.206;5.114;2022-09-29T03:39:21;14.43;;;8.32;;
64885;SDS011;51514;52.206;5.114;2022-09-29T03:41:47;11.90;;;7.50;;
64885;SDS011;51514;52.206;5.114;2022-09-29T03:44:13;12.77;;;8.05;;
64885;SDS011;51514;52.206;5.114;2022-09-29T03:46:38;10.25;;;8.02;;
64885;SDS011;51514;52.206;5.114;2022-09-29T03:49:07;9.07;;;7.32;;
64885;SDS011;51514;52.206;5.114;2022-09-29T03:51:40;10.57;;;7.95;;
64885;SDS011;51514;52.206;5.114;2022-09-29T03:54:09;9.25;;;8.20;;
64885;SDS011;51514;52.206;5.114;2022-09-29T03:56:35;14.15;;;7.43;;
64885;SDS011;51514;52.206;5.114;2022-09-29T03:59:01;7.32;;;6.05;;
64885;SDS011;51514;52.206;5.114;2022-09-29T04:01:29;9.57;;;6.45;;
64885;SDS011;51514;52.206;5.114;2022-09-29T04:03:55;14.18;;;6.88;;
64885;SDS011;51514;52.206;5.114;2022-09-29T04:06:21;15.23;;;6.80;;
64885;SDS011;51514;52.206;5.114;2022-09-29T04:08:47;12.45;;;7.68;;
64885;SDS011;51514;52.206;5.114;2022-09-29T04:11:13;12.68;;;7.10;;
64885;SDS011;51514;52.206;5.114;2022-09-29T04:13:39;13.05;;;6.78;;
64885;SDS011;51514;52.206;5.114;2022-09-29T04:16:04;13.63;;;6.28;;
64885;SDS011;51514;52.206;5.114;2022-09-29T04:18:30;10.85;;;6.68;;
64885;SDS011;51514;52.206;5.114;2022-09-29T04:20:56;14.68;;;7.00;;
64885;SDS011;51514;52.206;5.114;2022-09-29T04:23:24;10.85;;;6.63;;
64885;SDS011;51514;52.206;5.114;2022-09-29T04:25:56;14.50;;;8.20;;
64885;SDS011;51514;52.206;5.114;2022-09-29T04:28:22;11.85;;;8.27;;
64885;SDS011;51514;52.206;5.114;2022-09-29T04:30:48;9.98;;;7.60;;
64885;SDS011;51514;52.206;5.114;2022-09-29T04:33:13;14.88;;;8.43;;
64885;SDS011;51514;52.206;5.114;2022-09-29T04:35:39;12.20;;;7.97;;
64885;SDS011;51514;52.206;5.114;2022-09-29T04:38:04;11.32;;;7.93;;
64885;SDS011;51514;52.206;5.114;2022-09-29T04:40:32;11.20;;;8.57;;
64885;SDS011;51514;52.206;5.114;2022-09-29T04:43:00;11.10;;;7.93;;
64885;SDS011;51514;52.206;5.114;2022-09-29T04:45:25;9.15;;;6.80;;
64885;SDS011;51514;52.206;5.114;2022-09-29T04:47:50;10.57;;;7.10;;
64885;SDS011;51514;52.206;5.114;2022-09-29T04:50:16;8.70;;;6.57;;
64885;SDS011;51514;52.206;5.114;2022-09-29T04:52:42;25.33;;;6.60;;
64885;SDS011;51514;52.206;5.114;2022-09-29T04:55:07;8.90;;;5.93;;
64885;SDS011;51514;52.206;5.114;2022-09-29T04:57:35;7.65;;;5.97;;
64885;SDS011;51514;52.206;5.114;2022-09-29T05:00:01;7.13;;;5.93;;
64885;SDS011;51514;52.206;5.114;2022-09-29T05:02:28;10.32;;;6.63;;
64885;SDS011;51514;52.206;5.114;2022-09-29T05:04:53;13.15;;;5.97;;
64885;SDS011;51514;52.206;5.114;2022-09-29T05:07:19;12.60;;;6.88;;
64885;SDS011;51514;52.206;5.114;2022-09-29T05:09:44;16.17;;;6.57;;
64885;SDS011;51514;52.206;5.114;2022-09-29T05:12:09;25.17;;;7.63;;
64885;SDS011;51514;52.206;5.114;2022-09-29T05:14:34;25.40;;;7.45;;
64885;SDS011;51514;52.206;5.114;2022-09-29T05:17:00;7.57;;;6.63;;
64885;SDS011;51514;52.206;5.114;2022-09-29T05:19:25;11.10;;;6.78;;
64885;SDS011;51514;52.206;5.114;2022-09-29T05:21:51;8.77;;;6.47;;
64885;SDS011;51514;52.206;5.114;2022-09-29T05:24:16;8.30;;;6.20;;
64885;SDS011;51514;52.206;5.114;2022-09-29T05:26:41;9.48;;;6.97;;
64885;SDS011;51514;52.206;5.114;2022-09-29T05:29:06;8.68;;;7.38;;
64885;SDS011;51514;52.206;5.114;2022-09-29T05:31:32;9.40;;;7.18;;
64885;SDS011;51514;52.206;5.114;2022-09-29T05:33:57;8.38;;;6.95;;
64885;SDS011;51514;52.206;5.114;2022-09-29T05:36:23;10.88;;;5.90;;
64885;SDS011;51514;52.206;5.114;2022-09-29T05:38:48;11.63;;;7.25;;
64885;SDS011;51514;52.206;5.114;2022-09-29T05:41:14;10.52;;;5.88;;
64885;SDS011;51514;52.206;5.114;2022-09-29T05:43:48;10.75;;;8.23;;
64885;SDS011;51514;52.206;5.114;2022-09-29T05:46:15;10.40;;;8.10;;
64885;SDS011;51514;52.206;5.114;2022-09-29T05:48:46;11.00;;;8.10;;
64885;SDS011;51514;52.206;5.114;2022-09-29T05:51:14;18.70;;;8.45;;
64885;SDS011;51514;52.206;5.114;2022-09-29T05:53:41;25.70;;;8.48;;
64885;SDS011;51514;52.206;5.114;2022-09-29T05:56:10;13.50;;;8.88;;
64885;SDS011;51514;52.206;5.114;2022-09-29T05:58:38;14.75;;;8.32;;
64885;SDS011;51514;52.206;5.114;2022-09-29T06:01:04;9.82;;;8.30;;
64885;SDS011;51514;52.206;5.114;2022-09-29T06:03:34;14.48;;;7.22;;
64885;SDS011;51514;52.206;5.114;2022-09-29T06:06:04;9.93;;;8.02;;
64885;SDS011;51514;52.206;5.114;2022-09-29T06:08:37;10.25;;;8.25;;
64885;SDS011;51514;52.206;5.114;2022-09-29T06:11:04;9.07;;;7.82;;
64885;SDS011;51514;52.206;5.114;2022-09-29T06:13:36;10.20;;;7.72;;
64885;SDS011;51514;52.206;5.114;2022-09-29T06:16:06;9.57;;;8.40;;
64885;SDS011;51514;52.206;5.114;2022-09-29T06:18:32;13.40;;;8.88;;
64885;SDS011;51514;52.206;5.114;2022-09-29T06:21:04;11.50;;;8.68;;
64885;SDS011;51514;52.206;5.114;2022-09-29T06:23:32;10.60;;;8.35;;
64885;SDS011;51514;52.206;5.114;2022-09-29T06:25:58;9.48;;;8.02;;
64885;SDS011;51514;52.206;5.114;2022-09-29T06:28:26;9.23;;;7.82;;
64885;SDS011;51514;52.206;5.114;2022-09-29T06:30:52;13.65;;;9.02;;
64885;SDS011;51514;52.206;5.114;2022-09-29T06:33:17;11.60;;;8.73;;
64885;SDS011;51514;52.206;5.114;2022-09-29T06:35:47;11.00;;;8.70;;
64885;SDS011;51514;52.206;5.114;2022-09-29T06:38:35;11.32;;;9.68;;
64885;SDS011;51514;52.206;5.114;2022-09-29T06:41:01;13.43;;;9.60;;
64885;SDS011;51514;52.206;5.114;2022-09-29T06:43:26;14.07;;;10.68;;
64885;SDS011;51514;52.206;5.114;2022-09-29T06:45:52;12.15;;;10.45;;
64885;SDS011;51514;52.206;5.114;2022-09-29T06:48:17;12.15;;;10.85;;
64885;SDS011;51514;52.206;5.114;2022-09-29T06:50:42;14.02;;;11.05;;
64885;SDS011;51514;52.206;5.114;2022-09-29T06:53:07;14.88;;;11.65;;
64885;SDS011;51514;52.206;5.114;2022-09-29T06:55:33;13.73;;;11.48;;
64885;SDS011;51514;52.206;5.114;2022-09-29T06:57:58;20.33;;;12.95;;
64885;SDS011;51514;52.206;5.114;2022-09-29T07:00:24;16.33;;;11.30;;
64885;SDS011;51514;52.206;5.114;2022-09-29T07:02:49;15.48;;;11.27;;
64885;SDS011;51514;52.206;5.114;2022-09-29T07:05:15;14.43;;;11.65;;
64885;SDS011;51514;52.206;5.114;2022-09-29T07:07:40;16.63;;;12.65;;
64885;SDS011;51514;52.206;5.114;2022-09-29T07:10:06;14.68;;;11.57;;
64885;SDS011;51514;52.206;5.114;2022-09-29T07:12:32;15.63;;;12.50;;
64885;SDS011;51514;52.206;5.114;2022-09-29T07:14:57;15.40;;;12.70;;
64885;SDS011;51514;52.206;5.114;2022-09-29T07:17:22;19.15;;;12.63;;
64885;SDS011;51514;52.206;5.114;2022-09-29T07:19:48;20.50;;;13.10;;
64885;SDS011;51514;52.206;5.114;2022-09-29T07:22:13;16.20;;;12.23;;
64885;SDS011;51514;52.206;5.114;2022-09-29T07:24:38;17.45;;;12.70;;
64885;SDS011;51514;52.206;5.114;2022-09-29T07:27:04;16.58;;;12.55;;
64885;SDS011;51514;52.206;5.114;2022-09-29T07:29:29;18.80;;;13.02;;
64885;SDS011;51514;52.206;5.114;2022-09-29T07:31:57;18.50;;;12.65;;
64885;SDS011;51514;52.206;5.114;2022-09-29T07:34:23;17.35;;;13.10;;
64885;SDS011;51514;52.206;5.114;2022-09-29T07:36:48;17.67;;;13.15;;
64885;SDS011;51514;52.206;5.114;2022-09-29T07:39:14;18.63;;;14.02;;
64885;SDS011;51514;52.206;5.114;2022-09-29T07:41:39;17.33;;;13.35;;
64885;SDS011;51514;52.206;5.114;2022-09-29T07:44:05;17.25;;;13.50;;
64885;SDS011;51514;52.206;5.114;2022-09-29T07:46:30;18.23;;;13.57;;
64885;SDS011;51514;52.206;5.114;2022-09-29T07:48:56;23.15;;;15.85;;
64885;SDS011;51514;52.206;5.114;2022-09-29T07:51:22;18.33;;;13.50;;
64885;SDS011;51514;52.206;5.114;2022-09-29T07:53:47;18.33;;;13.82;;
64885;SDS011;51514;52.206;5.114;2022-09-29T07:56:17;18.83;;;14.30;;
64885;SDS011;51514;52.206;5.114;2022-09-29T07:58:44;19.77;;;14.40;;
64885;SDS011;51514;52.206;5.114;2022-09-29T08:01:11;17.15;;;14.43;;
64885;SDS011;51514;52.206;5.114;2022-09-29T08:03:40;20.27;;;14.98;;
64885;SDS011;51514;52.206;5.114;2022-09-29T08:06:12;20.90;;;16.10;;
64885;SDS011;51514;52.206;5.114;2022-09-29T08:08:38;18.77;;;15.73;;
64885;SDS011;51514;52.206;5.114;2022-09-29T08:11:08;20.13;;;15.98;;
64885;SDS011;51514;52.206;5.114;2022-09-29T08:13:35;20.83;;;15.13;;
64885;SDS011;51514;52.206;5.114;2022-09-29T08:16:02;20.23;;;15.60;;
64885;SDS011;51514;52.206;5.114;2022-09-29T08:18:29;21.48;;;16.20;;
64885;SDS011;51514;52.206;5.114;2022-09-29T08:20:55;23.85;;;15.60;;
64885;SDS011;51514;52.206;5.114;2022-09-29T08:23:21;24.02;;;17.45;;
64885;SDS011;51514;52.206;5.114;2022-09-29T08:25:47;20.90;;;15.93;;
64885;SDS011;51514;52.206;5.114;2022-09-29T08:28:13;19.20;;;15.35;;
64885;SDS011;51514;52.206;5.114;2022-09-29T08:30:38;22.33;;;16.48;;
64885;SDS011;51514;52.206;5.114;2022-09-29T08:33:04;21.38;;;17.35;;
64885;SDS011;51514;52.206;5.114;2022-09-29T08:35:35;20.77;;;17.67;;
64885;SDS011;51514;52.206;5.114;2022-09-29T08:38:00;20.63;;;17.02;;
64885;SDS011;51514;52.206;5.114;2022-09-29T08:40:27;22.00;;;17.70;;
64885;SDS011;51514;52.206;5.114;2022-09-29T08:43:02;20.98;;;17.27;;
64885;SDS011;51514;52.206;5.114;2022-09-29T08:45:36;25.13;;;17.25;;
64885;SDS011;51514;52.206;5.114;2022-09-29T08:48:09;19.80;;;16.70;;
64885;SDS011;51514;52.206;5.114;2022-09-29T08:50:47;23.98;;;16.63;;
64885;SDS011;51514;52.206;5.114;2022-09-29T08:53:20;23.90;;;16.35;;
64885;SDS011;51514;52.206;5.114;2022-09-29T08:55:52;17.92;;;15.95;;
64885;SDS011;51514;52.206;5.114;2022-09-29T08:58:18;20.42;;;14.80;;
64885;SDS011;51514;52.206;5.114;2022-09-29T09:06:12;23.13;;;16.83;;
64885;SDS011;51514;52.206;5.114;2022-09-29T09:14:39;19.60;;;15.57;;
64885;SDS011;51514;52.206;5.114;2022-09-29T09:27:58;18.75;;;14.65;;
64885;SDS011;51514;52.206;5.114;2022-09-29T09:30:24;20.83;;;15.95;;
64885;SDS011;51514;52.206;5.114;2022-09-29T09:32:58;23.08;;;16.95;;
64885;SDS011;51514;52.206;5.114;2022-09-29T09:35:27;22.02;;;15.90;;
64885;SDS011;51514;52.206;5.114;2022-09-29T09:38:07;21.15;;;16.77;;
64885;SDS011;51514;52.206;5.114;2022-09-29T09:40:41;21.52;;;18.60;;
64885;SDS011;51514;52.206;5.114;2022-09-29T09:43:15;24.42;;;18.17;;
64885;SDS011;51514;52.206;5.114;2022-09-29T09:45:58;20.88;;;15.48;;
64885;SDS011;51514;52.206;5.114;2022-09-29T09:48:35;16.85;;;13.25;;
64885;SDS011;51514;52.206;5.114;2022-09-29T09:51:20;19.75;;;15.57;;
64885;SDS011;51514;52.206;5.114;2022-09-29T09:54:11;20.13;;;15.98;;
64885;SDS011;51514;52.206;5.114;2022-09-29T09:57:23;22.15;;;16.52;;
64885;SDS011;51514;52.206;5.114;2022-09-29T10:02:29;23.10;;;17.07;;
64885;SDS011;51514;52.206;5.114;2022-09-29T10:04:58;21.88;;;15.82;;
64885;SDS011;51514;52.206;5.114;2022-09-29T10:07:24;22.17;;;15.55;;
64885;SDS011;51514;52.206;5.114;2022-09-29T10:09:52;24.52;;;17.48;;
64885;SDS011;51514;52.206;5.114;2022-09-29T10:12:20;18.70;;;12.98;;
64885;SDS011;51514;52.206;5.114;2022-09-29T10:14:58;21.38;;;13.52;;
64885;SDS011;51514;52.206;5.114;2022-09-29T10:17:29;9.07;;;4.90;;
64885;SDS011;51514;52.206;5.114;2022-09-29T10:20:03;10.05;;;6.07;;
64885;SDS011;51514;52.206;5.114;2022-09-29T10:22:30;12.90;;;9.15;;
64885;SDS011;51514;52.206;5.114;2022-09-29T10:25:16;15.35;;;10.65;;
64885;SDS011;51514;52.206;5.114;2022-09-29T10:27:46;16.98;;;11.07;;
64885;SDS011;51514;52.206;5.114;2022-09-29T10:32:57;16.88;;;8.98;;
64885;SDS011;51514;52.206;5.114;2022-09-29T10:35:31;13.32;;;7.13;;
64885;SDS011;51514;52.206;5.114;2022-09-29T10:38:01;13.38;;;9.15;;
64885;SDS011;51514;52.206;5.114;2022-09-29T10:40:31;8.93;;;5.70;;
64885;SDS011;51514;52.206;5.114;2022-09-29T10:42:59;10.85;;;6.75;;
64885;SDS011;51514;52.206;5.114;2022-09-29T10:45:47;9.73;;;6.15;;
64885;SDS011;51514;52.206;5.114;2022-09-29T10:48:13;9.18;;;7.00;;
64885;SDS011;51514;52.206;5.114;2022-09-29T10:50:52;9.63;;;6.45;;
64885;SDS011;51514;52.206;5.114;2022-09-29T10:53:30;9.43;;;6.55;;
64885;SDS011;51514;52.206;5.114;2022-09-29T10:58:44;8.85;;;5.93;;
64885;SDS011;51514;52.206;5.114;2022-09-29T11:01:17;8.98;;;5.50;;
64885;SDS011;51514;52.206;5.114;2022-09-29T11:03:51;10.15;;;6.22;;
64885;SDS011;51514;52.206;5.114;2022-09-29T11:06:33;9.50;;;6.53;;
64885;SDS011;51514;52.206;5.114;2022-09-29T11:09:02;10.10;;;5.07;;
64885;SDS011;51514;52.206;5.114;2022-09-29T11:11:31;7.95;;;5.35;;
64885;SDS011;51514;52.206;5.114;2022-09-29T11:14:01;7.97;;;4.35;;
64885;SDS011;51514;52.206;5.114;2022-09-29T11:16:32;6.75;;;4.05;;
64885;SDS011;51514;52.206;5.114;2022-09-29T11:19:03;8.20;;;4.30;;
64885;SDS011;51514;52.206;5.114;2022-09-29T11:24:09;5.75;;;3.70;;
64885;SDS011;51514;52.206;5.114;2022-09-29T11:26:50;8.50;;;4.00;;
64885;SDS011;51514;52.206;5.114;2022-09-29T11:51:21;3.58;;;1.90;;
64885;SDS011;51514;52.206;5.114;2022-09-29T11:54:04;3.83;;;2.85;;
64885;SDS011;51514;52.206;5.114;2022-09-29T12:11:37;3.42;;;2.00;;
64885;SDS011;51514;52.206;5.114;2022-09-29T12:14:36;3.45;;;2.40;;
64885;SDS011;51514;52.206;5.114;2022-09-29T12:17:19;4.47;;;2.75;;
64885;SDS011;51514;52.206;5.114;2022-09-29T12:19:49;6.15;;;3.20;;
64885;SDS011;51514;52.206;5.114;2022-09-29T12:22:23;4.20;;;2.63;;
64885;SDS011;51514;52.206;5.114;2022-09-29T12:24:53;4.13;;;2.63;;
64885;SDS011;51514;52.206;5.114;2022-09-29T12:30:08;2.97;;;2.15;;
64885;SDS011;51514;52.206;5.114;2022-09-29T12:32:40;4.38;;;2.30;;
64885;SDS011;51514;52.206;5.114;2022-09-29T12:35:14;2.40;;;1.75;;
64885;SDS011;51514;52.206;5.114;2022-09-29T12:43:49;5.07;;;1.60;;
64885;SDS011;51514;52.206;5.114;2022-09-29T12:46:30;2.80;;;1.83;;
64885;SDS011;51514;52.206;5.114;2022-09-29T12:49:03;6.97;;;2.50;;
64885;SDS011;51514;52.206;5.114;2022-09-29T12:51:44;2.58;;;1.73;;
64885;SDS011;51514;52.206;5.114;2022-09-29T13:07:42;2.53;;;1.55;;
64885;SDS011;51514;52.206;5.114;2022-09-29T13:16:31;3.65;;;1.38;;
64885;SDS011;51514;52.206;5.114;2022-09-29T13:19:23;2.38;;;1.83;;
64885;SDS011;51514;52.206;5.114;2022-09-29T13:22:19;4.25;;;1.40;;
64885;SDS011;51514;52.206;5.114;2022-09-29T13:32:30;1.98;;;1.10;;
64885;SDS011;51514;52.206;5.114;2022-09-29T13:34:58;1.67;;;1.30;;
64885;SDS011;51514;52.206;5.114;2022-09-29T13:37:26;2.50;;;1.05;;
64885;SDS011;51514;52.206;5.114;2022-09-29T13:40:00;2.33;;;1.85;;
64885;SDS011;51514;52.206;5.114;2022-09-29T14:00:55;4.80;;;1.30;;
64885;SDS011;51514;52.206;5.114;2022-09-29T14:03:33;2.05;;;1.23;;
64885;SDS011;51514;52.206;5.114;2022-09-29T14:06:18;4.47;;;1.20;;
64885;SDS011;51514;52.206;5.114;2022-09-29T14:08:50;2.25;;;1.20;;
64885;SDS011;51514;52.206;5.114;2022-09-29T14:13:55;2.88;;;1.85;;
64885;SDS011;51514;52.206;5.114;2022-09-29T14:16:45;1.67;;;1.02;;
64885;SDS011;51514;52.206;5.114;2022-09-29T14:19:23;3.47;;;1.48;;
64885;SDS011;51514;52.206;5.114;2022-09-29T14:21:59;2.50;;;1.27;;
64885;SDS011;51514;52.206;5.114;2022-09-29T14:29:52;1.73;;;1.42;;
64885;SDS011;51514;52.206;5.114;2022-09-29T14:32:27;2.78;;;1.55;;
64885;SDS011;51514;52.206;5.114;2022-09-29T14:35:05;1.58;;;1.45;;
64885;SDS011;51514;52.206;5.114;2022-09-29T14:37:40;1.83;;;1.38;;
64885;SDS011;51514;52.206;5.114;2022-09-29T14:40:08;1.92;;;1.27;;
64885;SDS011;51514;52.206;5.114;2022-09-29T14:52:32;1.88;;;1.17;;
64885;SDS011;51514;52.206;5.114;2022-09-29T14:55:13;1.75;;;1.13;;
64885;SDS011;51514;52.206;5.114;2022-09-29T14:58:05;2.17;;;1.13;;
64885;SDS011;51514;52.206;5.114;2022-09-29T15:03:45;0.82;;;0.82;;
64885;SDS011;51514;52.206;5.114;2022-09-29T15:08:44;2.08;;;0.85;;
64885;SDS011;51514;52.206;5.114;2022-09-29T15:11:23;1.83;;;0.98;;
64885;SDS011;51514;52.206;5.114;2022-09-29T15:13:51;1.00;;;0.75;;
64885;SDS011;51514;52.206;5.114;2022-09-29T15:16:33;2.20;;;0.95;;
64885;SDS011;51514;52.206;5.114;2022-09-29T15:19:26;1.27;;;0.90;;
64885;SDS011;51514;52.206;5.114;2022-09-29T15:27:40;0.60;;;0.60;;
64885;SDS011;51514;52.206;5.114;2022-09-29T15:30:13;2.05;;;0.93;;
64885;SDS011;51514;52.206;5.114;2022-09-29T15:32:41;0.98;;;0.90;;
64885;SDS011;51514;52.206;5.114;2022-09-29T15:35:13;0.98;;;0.90;;
64885;SDS011;51514;52.206;5.114;2022-09-29T15:40:13;1.25;;;0.80;;
64885;SDS011;51514;52.206;5.114;2022-09-29T15:42:39;0.60;;;0.60;;
64885;SDS011;51514;52.206;5.114;2022-09-29T15:45:08;0.70;;;0.70;;
64885;SDS011;51514;52.206;5.114;2022-09-29T15:47:40;1.38;;;0.60;;
64885;SDS011;51514;52.206;5.114;2022-09-29T15:50:16;1.33;;;0.85;;
64885;SDS011;51514;52.206;5.114;2022-09-29T15:52:43;1.60;;;1.00;;
64885;SDS011;51514;52.206;5.114;2022-09-29T15:55:13;1.77;;;0.68;;
64885;SDS011;51514;52.206;5.114;2022-09-29T15:57:44;1.27;;;1.00;;
64885;SDS011;51514;52.206;5.114;2022-09-29T16:02:45;3.72;;;0.75;;
64885;SDS011;51514;52.206;5.114;2022-09-29T16:05:26;0.80;;;0.75;;
64885;SDS011;51514;52.206;5.114;2022-09-29T16:11:02;1.38;;;1.00;;
64885;SDS011;51514;52.206;5.114;2022-09-29T16:13:32;1.38;;;1.13;;
64885;SDS011;51514;52.206;5.114;2022-09-29T16:16:01;1.75;;;0.95;;
64885;SDS011;51514;52.206;5.114;2022-09-29T16:18:30;1.10;;;0.90;;
64885;SDS011;51514;52.206;5.114;2022-09-29T16:20:56;1.17;;;1.05;;
64885;SDS011;51514;52.206;5.114;2022-09-29T16:28:38;1.87;;;1.00;;
64885;SDS011;51514;52.206;5.114;2022-09-29T16:31:21;0.93;;;0.82;;
64885;SDS011;51514;52.206;5.114;2022-09-29T16:33:51;1.75;;;0.75;;
64885;SDS011;51514;52.206;5.114;2022-09-29T16:36:24;1.38;;;0.70;;
64885;SDS011;51514;52.206;5.114;2022-09-29T16:38:52;0.70;;;0.70;;
64885;SDS011;51514;52.206;5.114;2022-09-29T16:46:48;0.75;;;0.73;;
64885;SDS011;51514;52.206;5.114;2022-09-29T16:49:16;0.82;;;0.70;;
64885;SDS011;51514;52.206;5.114;2022-09-29T16:51:45;1.40;;;0.90;;
64885;SDS011;51514;52.206;5.114;2022-09-29T16:54:18;1.60;;;0.93;;
64885;SDS011;51514;52.206;5.114;2022-09-29T16:56:48;1.70;;;0.95;;
64885;SDS011;51514;52.206;5.114;2022-09-29T16:59:15;3.45;;;1.05;;
64885;SDS011;51514;52.206;5.114;2022-09-29T17:01:43;2.13;;;1.13;;
64885;SDS011;51514;52.206;5.114;2022-09-29T17:04:10;2.40;;;1.25;;
64885;SDS011;51514;52.206;5.114;2022-09-29T17:06:43;3.25;;;1.95;;
64885;SDS011;51514;52.206;5.114;2022-09-29T17:09:15;3.03;;;2.13;;
64885;SDS011;51514;52.206;5.114;2022-09-29T17:11:43;5.38;;;3.00;;
64885;SDS011;51514;52.206;5.114;2022-09-29T17:14:10;5.57;;;3.70;;
64885;SDS011;51514;52.206;5.114;2022-09-29T17:16:38;6.53;;;4.10;;
64885;SDS011;51514;52.206;5.114;2022-09-29T17:19:07;7.03;;;2.85;;
64885;SDS011;51514;52.206;5.114;2022-09-29T17:21:33;7.10;;;2.60;;
64885;SDS011;51514;52.206;5.114;2022-09-29T17:23:59;4.10;;;3.05;;
64885;SDS011;51514;52.206;5.114;2022-09-29T17:26:34;9.50;;;3.90;;
64885;SDS011;51514;52.206;5.114;2022-09-29T17:29:21;5.03;;;3.25;;
64885;SDS011;51514;52.206;5.114;2022-09-29T17:31:46;4.78;;;3.22;;
64885;SDS011;51514;52.206;5.114;2022-09-29T17:34:11;4.15;;;3.22;;
64885;SDS011;51514;52.206;5.114;2022-09-29T17:36:37;7.60;;;2.97;;
64885;SDS011;51514;52.206;5.114;2022-09-29T17:39:03;5.72;;;3.17;;
64885;SDS011;51514;52.206;5.114;2022-09-29T17:41:28;7.38;;;2.80;;
64885;SDS011;51514;52.206;5.114;2022-09-29T17:43:54;4.07;;;2.50;;
64885;SDS011;51514;52.206;5.114;2022-09-29T17:46:19;3.17;;;1.73;;
64885;SDS011;51514;52.206;5.114;2022-09-29T17:48:45;2.95;;;1.63;;
64885;SDS011;51514;52.206;5.114;2022-09-29T17:51:11;2.03;;;1.40;;
64885;SDS011;51514;52.206;5.114;2022-09-29T17:53:37;2.28;;;1.45;;
64885;SDS011;51514;52.206;5.114;2022-09-29T17:56:03;3.08;;;1.60;;
64885;SDS011;51514;52.206;5.114;2022-09-29T17:58:28;2.83;;;1.48;;
64885;SDS011;51514;52.206;5.114;2022-09-29T18:00:54;2.00;;;1.30;;
64885;SDS011;51514;52.206;5.114;2022-09-29T18:03:21;5.10;;;2.47;;
64885;SDS011;51514;52.206;5.114;2022-09-29T18:05:48;6.47;;;3.00;;
64885;SDS011;51514;52.206;5.114;2022-09-29T18:08:24;5.55;;;3.55;;
64885;SDS011;51514;52.206;5.114;2022-09-29T18:10:52;5.38;;;3.30;;
64885;SDS011;51514;52.206;5.114;2022-09-29T18:13:19;5.20;;;3.30;;
64885;SDS011;51514;52.206;5.114;2022-09-29T18:15:45;3.53;;;2.65;;
64885;SDS011;51514;52.206;5.114;2022-09-29T18:18:12;2.95;;;1.52;;
64885;SDS011;51514;52.206;5.114;2022-09-29T18:20:42;1.60;;;1.50;;
64885;SDS011;51514;52.206;5.114;2022-09-29T18:23:10;1.42;;;1.30;;
64885;SDS011;51514;52.206;5.114;2022-09-29T18:25:37;3.17;;;1.40;;